Hauptseite
METAR-TAF:

METAR-TAF

Flughäfen :

RAF Spadeadam

Spadeadam, England

Breite: 55-03N, Länge: 002-33W, Höhe: 325 m

Beobachtung

Neuester Wetterbericht von vor 31 Minuten, um 12:50 UTC
Wind 9 kt aus Süd/Südwest
Temperatur 16°C
Luftfeuchtigkeit 48%
Luftdruck 1036 hPa
Sichtweite 10 km oder mehr

METAR: EGOM 271250Z AUTO 20009KT 9999 SCT050/// BKN150/// 16/05 Q1036

Zeit: 14:21 (13:21 UTC)


TAF: fehlend

Wetterbeobachtungen und Prognosen von mehr als 4000 Flughäfen (METAR und TAF Bericht).

Die verfügbaren Stationen werden durch gelbe und rote Markierungen auf der Karte dargestellt.

Führen Sie die Maus auf sie, um den Namen der Station zu sehen.

Darauf klicken, um die Beobachtung von Wetterbeobachtungen und Prognosen zu sehen.

Um die Karte zu ändern : klicken Sie auf den grünen Tasten mit einem schwarzen Kreuz Zum Vergrößern, auf den grünen Button mit einem Gedankenstrich zu verkleinern, oder auf die grünen Pfeile für benachbarte Karten.


METAR-TAF: